Terminal Aerodrome Forecast
Issued by NWS

Home | Current Version | Previous Version | Text Only | Print | Product List | Glossary On
Versions: 1 2 3 4 5 6 7 8 9 10 11 12 13 14 15 16 17 18 19 20 21 22 23 24 25 26 27 28 29 30 31 32 33
720
FTUS44 KFWD 221450 AAA
TAFAFW
TAF AMD
KAFW 221450Z 2215/2312 09008KT P6SM SCT020 BKN120
     FM221700 10007KT P6SM BKN035
     FM222100 10007KT P6SM SCT040
     FM230100 13007KT P6SM BKN030
     FM230800 05005KT P6SM BKN018=

USA.gov is the U.S. government's official web portal to all federal, state and local government web resources and services.